sensor_id;sensor_type;location;lat;lon;timestamp;P1;durP1;ratioP1;P2;durP2;ratioP2
66179;SDS011;52986;44.028;20.466;2023-04-03T00:00:03;37.42;;;16.95;;
66179;SDS011;52986;44.028;20.466;2023-04-03T00:02:29;36.92;;;16.15;;
66179;SDS011;52986;44.028;20.466;2023-04-03T00:04:55;32.85;;;13.98;;
66179;SDS011;52986;44.028;20.466;2023-04-03T00:07:20;28.88;;;13.07;;
66179;SDS011;52986;44.028;20.466;2023-04-03T00:09:46;25.65;;;11.40;;
66179;SDS011;52986;44.028;20.466;2023-04-03T00:12:11;23.15;;;10.63;;
66179;SDS011;52986;44.028;20.466;2023-04-03T00:14:37;20.67;;;9.30;;
66179;SDS011;52986;44.028;20.466;2023-04-03T00:17:02;21.80;;;10.00;;
66179;SDS011;52986;44.028;20.466;2023-04-03T00:19:27;23.98;;;10.77;;
66179;SDS011;52986;44.028;20.466;2023-04-03T00:21:53;26.73;;;12.43;;
66179;SDS011;52986;44.028;20.466;2023-04-03T00:24:18;27.25;;;11.23;;
66179;SDS011;52986;44.028;20.466;2023-04-03T00:26:44;23.48;;;10.88;;
66179;SDS011;52986;44.028;20.466;2023-04-03T00:29:09;21.65;;;10.02;;
66179;SDS011;52986;44.028;20.466;2023-04-03T00:31:35;21.50;;;9.85;;
66179;SDS011;52986;44.028;20.466;2023-04-03T00:34:00;20.75;;;9.73;;
66179;SDS011;52986;44.028;20.466;2023-04-03T00:36:26;27.17;;;13.80;;
66179;SDS011;52986;44.028;20.466;2023-04-03T00:38:51;45.20;;;22.73;;
66179;SDS011;52986;44.028;20.466;2023-04-03T00:41:17;50.80;;;23.55;;
66179;SDS011;52986;44.028;20.466;2023-04-03T00:43:42;53.65;;;24.58;;
66179;SDS011;52986;44.028;20.466;2023-04-03T00:46:08;48.65;;;22.63;;
66179;SDS011;52986;44.028;20.466;2023-04-03T00:51:02;53.03;;;24.77;;
66179;SDS011;52986;44.028;20.466;2023-04-03T00:53:31;56.17;;;25.83;;
66179;SDS011;52986;44.028;20.466;2023-04-03T00:56:00;54.00;;;24.70;;
66179;SDS011;52986;44.028;20.466;2023-04-03T00:58:28;49.33;;;23.20;;
66179;SDS011;52986;44.028;20.466;2023-04-03T01:01:03;45.45;;;22.08;;
66179;SDS011;52986;44.028;20.466;2023-04-03T01:03:31;45.03;;;21.83;;
66179;SDS011;52986;44.028;20.466;2023-04-03T01:05:57;46.60;;;23.10;;
66179;SDS011;52986;44.028;20.466;2023-04-03T01:08:23;49.78;;;24.45;;
66179;SDS011;52986;44.028;20.466;2023-04-03T01:10:48;50.70;;;25.42;;
66179;SDS011;52986;44.028;20.466;2023-04-03T01:13:18;52.03;;;24.67;;
66179;SDS011;52986;44.028;20.466;2023-04-03T01:15:46;55.10;;;26.33;;
66179;SDS011;52986;44.028;20.466;2023-04-03T01:18:12;53.55;;;24.25;;
66179;SDS011;52986;44.028;20.466;2023-04-03T01:23:16;54.60;;;26.77;;
66179;SDS011;52986;44.028;20.466;2023-04-03T01:25:49;52.33;;;24.10;;
66179;SDS011;52986;44.028;20.466;2023-04-03T01:33:40;47.28;;;23.50;;
66179;SDS011;52986;44.028;20.466;2023-04-03T01:36:06;47.33;;;24.20;;
66179;SDS011;52986;44.028;20.466;2023-04-03T01:38:32;39.38;;;21.08;;
66179;SDS011;52986;44.028;20.466;2023-04-03T01:40:58;38.47;;;18.17;;
66179;SDS011;52986;44.028;20.466;2023-04-03T01:43:23;40.92;;;19.48;;
66179;SDS011;52986;44.028;20.466;2023-04-03T01:45:49;37.15;;;17.80;;
66179;SDS011;52986;44.028;20.466;2023-04-03T01:48:15;36.05;;;17.35;;
66179;SDS011;52986;44.028;20.466;2023-04-03T01:50:41;38.53;;;18.17;;
66179;SDS011;52986;44.028;20.466;2023-04-03T01:53:06;40.05;;;19.13;;
66179;SDS011;52986;44.028;20.466;2023-04-03T01:55:32;38.13;;;18.58;;
66179;SDS011;52986;44.028;20.466;2023-04-03T01:57:57;40.10;;;19.27;;
66179;SDS011;52986;44.028;20.466;2023-04-03T02:00:23;32.47;;;17.45;;
66179;SDS011;52986;44.028;20.466;2023-04-03T02:02:48;37.10;;;16.83;;
66179;SDS011;52986;44.028;20.466;2023-04-03T02:05:14;36.25;;;17.60;;
66179;SDS011;52986;44.028;20.466;2023-04-03T02:07:39;36.00;;;17.30;;
66179;SDS011;52986;44.028;20.466;2023-04-03T02:10:05;36.28;;;16.67;;
66179;SDS011;52986;44.028;20.466;2023-04-03T02:12:30;35.78;;;17.05;;
66179;SDS011;52986;44.028;20.466;2023-04-03T02:14:56;34.33;;;16.83;;
66179;SDS011;52986;44.028;20.466;2023-04-03T02:17:21;33.67;;;16.35;;
66179;SDS011;52986;44.028;20.466;2023-04-03T02:19:46;30.55;;;15.15;;
66179;SDS011;52986;44.028;20.466;2023-04-03T02:22:12;33.38;;;16.98;;
66179;SDS011;52986;44.028;20.466;2023-04-03T02:24:37;32.38;;;16.00;;
66179;SDS011;52986;44.028;20.466;2023-04-03T02:27:04;32.05;;;16.63;;
66179;SDS011;52986;44.028;20.466;2023-04-03T02:29:29;32.28;;;16.42;;
66179;SDS011;52986;44.028;20.466;2023-04-03T02:31:55;33.90;;;16.15;;
66179;SDS011;52986;44.028;20.466;2023-04-03T02:34:21;30.63;;;15.27;;
66179;SDS011;52986;44.028;20.466;2023-04-03T02:36:46;26.95;;;14.23;;
66179;SDS011;52986;44.028;20.466;2023-04-03T02:39:11;26.80;;;13.07;;
66179;SDS011;52986;44.028;20.466;2023-04-03T02:41:37;23.80;;;11.38;;
66179;SDS011;52986;44.028;20.466;2023-04-03T02:44:03;22.85;;;11.55;;
66179;SDS011;52986;44.028;20.466;2023-04-03T02:46:29;25.77;;;12.27;;
66179;SDS011;52986;44.028;20.466;2023-04-03T02:48:55;23.90;;;12.25;;
66179;SDS011;52986;44.028;20.466;2023-04-03T02:51:20;25.42;;;12.30;;
66179;SDS011;52986;44.028;20.466;2023-04-03T02:53:46;25.17;;;12.32;;
66179;SDS011;52986;44.028;20.466;2023-04-03T02:56:11;27.17;;;13.02;;
66179;SDS011;52986;44.028;20.466;2023-04-03T02:58:37;26.25;;;12.80;;
66179;SDS011;52986;44.028;20.466;2023-04-03T03:01:02;24.83;;;13.02;;
66179;SDS011;52986;44.028;20.466;2023-04-03T03:03:28;28.73;;;14.52;;
66179;SDS011;52986;44.028;20.466;2023-04-03T03:06:06;30.88;;;15.63;;
66179;SDS011;52986;44.028;20.466;2023-04-03T03:08:34;31.13;;;15.90;;
66179;SDS011;52986;44.028;20.466;2023-04-03T03:11:00;34.33;;;17.35;;
66179;SDS011;52986;44.028;20.466;2023-04-03T03:13:26;31.45;;;16.08;;
66179;SDS011;52986;44.028;20.466;2023-04-03T03:15:52;26.27;;;12.48;;
66179;SDS011;52986;44.028;20.466;2023-04-03T03:18:17;18.60;;;9.32;;
66179;SDS011;52986;44.028;20.466;2023-04-03T03:20:42;15.30;;;7.15;;
66179;SDS011;52986;44.028;20.466;2023-04-03T03:23:08;12.27;;;5.68;;
66179;SDS011;52986;44.028;20.466;2023-04-03T03:25:37;13.65;;;5.43;;
66179;SDS011;52986;44.028;20.466;2023-04-03T03:28:03;14.43;;;5.72;;
66179;SDS011;52986;44.028;20.466;2023-04-03T03:30:29;13.93;;;5.90;;
66179;SDS011;52986;44.028;20.466;2023-04-03T03:32:54;16.15;;;7.22;;
66179;SDS011;52986;44.028;20.466;2023-04-03T03:35:19;18.02;;;8.02;;
66179;SDS011;52986;44.028;20.466;2023-04-03T03:37:45;22.88;;;9.38;;
66179;SDS011;52986;44.028;20.466;2023-04-03T03:40:10;21.98;;;9.57;;
66179;SDS011;52986;44.028;20.466;2023-04-03T03:42:38;22.17;;;10.13;;
66179;SDS011;52986;44.028;20.466;2023-04-03T03:45:03;25.02;;;10.32;;
66179;SDS011;52986;44.028;20.466;2023-04-03T03:47:29;24.02;;;10.95;;
66179;SDS011;52986;44.028;20.466;2023-04-03T03:49:55;24.42;;;11.07;;
66179;SDS011;52986;44.028;20.466;2023-04-03T03:52:20;25.42;;;11.48;;
66179;SDS011;52986;44.028;20.466;2023-04-03T03:54:45;24.80;;;11.25;;
66179;SDS011;52986;44.028;20.466;2023-04-03T03:57:11;23.65;;;10.55;;
66179;SDS011;52986;44.028;20.466;2023-04-03T03:59:36;22.50;;;10.57;;
66179;SDS011;52986;44.028;20.466;2023-04-03T04:02:02;21.80;;;9.65;;
66179;SDS011;52986;44.028;20.466;2023-04-03T04:04:27;22.48;;;10.85;;
66179;SDS011;52986;44.028;20.466;2023-04-03T04:06:52;22.65;;;10.85;;
66179;SDS011;52986;44.028;20.466;2023-04-03T04:09:18;22.58;;;10.68;;
66179;SDS011;52986;44.028;20.466;2023-04-03T04:11:43;18.83;;;9.15;;
66179;SDS011;52986;44.028;20.466;2023-04-03T04:14:08;19.67;;;9.35;;
66179;SDS011;52986;44.028;20.466;2023-04-03T04:16:35;18.52;;;8.90;;
66179;SDS011;52986;44.028;20.466;2023-04-03T04:19:00;20.20;;;9.15;;
66179;SDS011;52986;44.028;20.466;2023-04-03T04:21:26;18.65;;;8.63;;
66179;SDS011;52986;44.028;20.466;2023-04-03T04:23:51;19.10;;;9.10;;
66179;SDS011;52986;44.028;20.466;2023-04-03T04:26:17;21.20;;;9.98;;
66179;SDS011;52986;44.028;20.466;2023-04-03T04:28:42;20.48;;;9.50;;
66179;SDS011;52986;44.028;20.466;2023-04-03T04:31:07;20.58;;;10.05;;
66179;SDS011;52986;44.028;20.466;2023-04-03T04:33:33;19.27;;;9.32;;
66179;SDS011;52986;44.028;20.466;2023-04-03T04:35:58;19.20;;;8.88;;
66179;SDS011;52986;44.028;20.466;2023-04-03T04:38:24;19.02;;;8.85;;
66179;SDS011;52986;44.028;20.466;2023-04-03T04:40:50;18.73;;;8.90;;
66179;SDS011;52986;44.028;20.466;2023-04-03T04:43:15;19.88;;;9.27;;
66179;SDS011;52986;44.028;20.466;2023-04-03T04:45:41;21.63;;;10.07;;
66179;SDS011;52986;44.028;20.466;2023-04-03T04:48:07;24.42;;;11.75;;
66179;SDS011;52986;44.028;20.466;2023-04-03T04:50:32;24.35;;;11.07;;
66179;SDS011;52986;44.028;20.466;2023-04-03T04:52:57;24.27;;;11.15;;
66179;SDS011;52986;44.028;20.466;2023-04-03T04:55:23;27.60;;;13.45;;
66179;SDS011;52986;44.028;20.466;2023-04-03T04:57:48;28.02;;;13.13;;
66179;SDS011;52986;44.028;20.466;2023-04-03T05:00:14;24.83;;;11.13;;
66179;SDS011;52986;44.028;20.466;2023-04-03T05:02:40;22.90;;;10.68;;
66179;SDS011;52986;44.028;20.466;2023-04-03T05:05:06;24.58;;;11.73;;
66179;SDS011;52986;44.028;20.466;2023-04-03T05:07:31;20.85;;;9.40;;
66179;SDS011;52986;44.028;20.466;2023-04-03T05:09:57;20.05;;;9.30;;
66179;SDS011;52986;44.028;20.466;2023-04-03T05:12:22;20.02;;;9.50;;
66179;SDS011;52986;44.028;20.466;2023-04-03T05:14:48;22.60;;;9.82;;
66179;SDS011;52986;44.028;20.466;2023-04-03T05:17:13;22.35;;;9.80;;
66179;SDS011;52986;44.028;20.466;2023-04-03T05:19:39;22.05;;;10.52;;
66179;SDS011;52986;44.028;20.466;2023-04-03T05:22:04;22.35;;;9.75;;
66179;SDS011;52986;44.028;20.466;2023-04-03T05:24:30;24.42;;;10.55;;
66179;SDS011;52986;44.028;20.466;2023-04-03T05:26:55;24.77;;;10.60;;
66179;SDS011;52986;44.028;20.466;2023-04-03T05:29:21;21.47;;;9.67;;
66179;SDS011;52986;44.028;20.466;2023-04-03T05:31:48;23.40;;;10.10;;
66179;SDS011;52986;44.028;20.466;2023-04-03T05:34:15;22.45;;;9.55;;
66179;SDS011;52986;44.028;20.466;2023-04-03T05:36:40;19.88;;;8.93;;
66179;SDS011;52986;44.028;20.466;2023-04-03T05:39:06;19.30;;;8.40;;
66179;SDS011;52986;44.028;20.466;2023-04-03T05:41:32;20.95;;;8.88;;
66179;SDS011;52986;44.028;20.466;2023-04-03T05:43:57;21.00;;;8.77;;
66179;SDS011;52986;44.028;20.466;2023-04-03T05:46:23;20.42;;;8.93;;
66179;SDS011;52986;44.028;20.466;2023-04-03T05:48:48;21.35;;;9.38;;
66179;SDS011;52986;44.028;20.466;2023-04-03T05:51:15;21.48;;;9.60;;
66179;SDS011;52986;44.028;20.466;2023-04-03T05:53:42;20.90;;;8.00;;
66179;SDS011;52986;44.028;20.466;2023-04-03T05:56:09;20.92;;;8.82;;
66179;SDS011;52986;44.028;20.466;2023-04-03T05:58:35;18.58;;;7.68;;
66179;SDS011;52986;44.028;20.466;2023-04-03T06:01:00;17.40;;;7.80;;
66179;SDS011;52986;44.028;20.466;2023-04-03T06:03:26;17.58;;;7.85;;
66179;SDS011;52986;44.028;20.466;2023-04-03T06:05:51;17.50;;;6.78;;
66179;SDS011;52986;44.028;20.466;2023-04-03T06:08:17;15.07;;;5.93;;
66179;SDS011;52986;44.028;20.466;2023-04-03T06:10:42;15.43;;;6.85;;
66179;SDS011;52986;44.028;20.466;2023-04-03T06:13:08;17.42;;;7.18;;
66179;SDS011;52986;44.028;20.466;2023-04-03T06:15:33;14.55;;;6.53;;
66179;SDS011;52986;44.028;20.466;2023-04-03T06:17:59;15.93;;;5.93;;
66179;SDS011;52986;44.028;20.466;2023-04-03T06:20:25;15.07;;;5.63;;
66179;SDS011;52986;44.028;20.466;2023-04-03T06:22:50;13.90;;;5.88;;
66179;SDS011;52986;44.028;20.466;2023-04-03T06:25:16;12.07;;;4.97;;
66179;SDS011;52986;44.028;20.466;2023-04-03T06:27:43;15.73;;;6.38;;
66179;SDS011;52986;44.028;20.466;2023-04-03T06:30:09;14.05;;;6.05;;
66179;SDS011;52986;44.028;20.466;2023-04-03T06:32:35;13.68;;;5.65;;
66179;SDS011;52986;44.028;20.466;2023-04-03T06:35:01;12.55;;;5.28;;
66179;SDS011;52986;44.028;20.466;2023-04-03T06:37:27;17.05;;;6.70;;
66179;SDS011;52986;44.028;20.466;2023-04-03T06:39:54;15.35;;;6.55;;
66179;SDS011;52986;44.028;20.466;2023-04-03T06:42:19;12.98;;;5.85;;
66179;SDS011;52986;44.028;20.466;2023-04-03T06:44:45;14.75;;;6.43;;
66179;SDS011;52986;44.028;20.466;2023-04-03T06:47:14;14.50;;;5.93;;
66179;SDS011;52986;44.028;20.466;2023-04-03T06:49:40;15.63;;;6.28;;
66179;SDS011;52986;44.028;20.466;2023-04-03T06:52:06;14.98;;;5.97;;
66179;SDS011;52986;44.028;20.466;2023-04-03T06:54:32;15.25;;;6.50;;
66179;SDS011;52986;44.028;20.466;2023-04-03T06:56:58;14.45;;;6.13;;
66179;SDS011;52986;44.028;20.466;2023-04-03T06:59:23;15.48;;;6.32;;
66179;SDS011;52986;44.028;20.466;2023-04-03T07:01:49;12.88;;;5.47;;
66179;SDS011;52986;44.028;20.466;2023-04-03T07:04:15;12.40;;;5.05;;
66179;SDS011;52986;44.028;20.466;2023-04-03T07:06:41;12.85;;;4.97;;
66179;SDS011;52986;44.028;20.466;2023-04-03T07:09:07;16.05;;;5.72;;
66179;SDS011;52986;44.028;20.466;2023-04-03T07:11:34;12.82;;;4.97;;
66179;SDS011;52986;44.028;20.466;2023-04-03T07:13:59;10.95;;;4.60;;
66179;SDS011;52986;44.028;20.466;2023-04-03T07:16:25;10.65;;;4.15;;
66179;SDS011;52986;44.028;20.466;2023-04-03T07:18:50;13.65;;;5.63;;
66179;SDS011;52986;44.028;20.466;2023-04-03T07:21:16;12.45;;;5.13;;
66179;SDS011;52986;44.028;20.466;2023-04-03T07:23:41;12.05;;;5.15;;
66179;SDS011;52986;44.028;20.466;2023-04-03T07:26:07;10.25;;;4.32;;
66179;SDS011;52986;44.028;20.466;2023-04-03T07:28:33;10.98;;;4.13;;
66179;SDS011;52986;44.028;20.466;2023-04-03T07:30:59;9.48;;;3.60;;
66179;SDS011;52986;44.028;20.466;2023-04-03T07:33:25;10.13;;;4.28;;
66179;SDS011;52986;44.028;20.466;2023-04-03T07:35:51;12.65;;;5.05;;
66179;SDS011;52986;44.028;20.466;2023-04-03T07:38:16;11.63;;;4.38;;
66179;SDS011;52986;44.028;20.466;2023-04-03T07:40:46;9.93;;;4.10;;
66179;SDS011;52986;44.028;20.466;2023-04-03T07:43:12;7.90;;;3.03;;
66179;SDS011;52986;44.028;20.466;2023-04-03T07:45:38;8.48;;;3.17;;
66179;SDS011;52986;44.028;20.466;2023-04-03T07:48:03;12.68;;;4.68;;
66179;SDS011;52986;44.028;20.466;2023-04-03T07:50:29;11.05;;;4.40;;
66179;SDS011;52986;44.028;20.466;2023-04-03T07:52:56;9.15;;;3.63;;
66179;SDS011;52986;44.028;20.466;2023-04-03T07:55:24;11.82;;;4.82;;
66179;SDS011;52986;44.028;20.466;2023-04-03T07:58:13;9.45;;;3.92;;
66179;SDS011;52986;44.028;20.466;2023-04-03T08:00:43;11.13;;;4.70;;
66179;SDS011;52986;44.028;20.466;2023-04-03T08:03:10;11.10;;;5.07;;
66179;SDS011;52986;44.028;20.466;2023-04-03T08:05:44;13.73;;;5.95;;
66179;SDS011;52986;44.028;20.466;2023-04-03T08:08:11;12.85;;;5.40;;
66179;SDS011;52986;44.028;20.466;2023-04-03T08:10:38;10.98;;;4.70;;
66179;SDS011;52986;44.028;20.466;2023-04-03T08:13:04;14.00;;;5.95;;
66179;SDS011;52986;44.028;20.466;2023-04-03T08:15:30;13.20;;;5.50;;
66179;SDS011;52986;44.028;20.466;2023-04-03T08:17:56;15.88;;;6.70;;
66179;SDS011;52986;44.028;20.466;2023-04-03T08:20:22;13.10;;;6.10;;
66179;SDS011;52986;44.028;20.466;2023-04-03T08:22:47;13.20;;;6.43;;
66179;SDS011;52986;44.028;20.466;2023-04-03T08:25:13;14.52;;;6.00;;
66179;SDS011;52986;44.028;20.466;2023-04-03T08:27:38;11.98;;;5.50;;
66179;SDS011;52986;44.028;20.466;2023-04-03T08:30:04;14.05;;;6.50;;
66179;SDS011;52986;44.028;20.466;2023-04-03T08:32:30;14.10;;;6.32;;
66179;SDS011;52986;44.028;20.466;2023-04-03T08:34:55;16.42;;;7.20;;
66179;SDS011;52986;44.028;20.466;2023-04-03T08:37:21;13.80;;;6.50;;
66179;SDS011;52986;44.028;20.466;2023-04-03T08:39:46;14.60;;;6.57;;
66179;SDS011;52986;44.028;20.466;2023-04-03T08:42:19;12.20;;;5.50;;
66179;SDS011;52986;44.028;20.466;2023-04-03T08:50:35;16.05;;;7.57;;
66179;SDS011;52986;44.028;20.466;2023-04-03T08:53:05;13.00;;;6.07;;
66179;SDS011;52986;44.028;20.466;2023-04-03T08:55:37;16.13;;;6.70;;
66179;SDS011;52986;44.028;20.466;2023-04-03T08:58:11;16.35;;;6.82;;
66179;SDS011;52986;44.028;20.466;2023-04-03T09:00:48;18.10;;;8.27;;
66179;SDS011;52986;44.028;20.466;2023-04-03T09:03:16;15.73;;;7.30;;
66179;SDS011;52986;44.028;20.466;2023-04-03T09:05:52;19.33;;;8.27;;
66179;SDS011;52986;44.028;20.466;2023-04-03T09:08:32;16.42;;;6.78;;
66179;SDS011;52986;44.028;20.466;2023-04-03T09:11:21;14.45;;;6.20;;
66179;SDS011;52986;44.028;20.466;2023-04-03T09:19:35;18.80;;;8.57;;
66179;SDS011;52986;44.028;20.466;2023-04-03T09:22:11;18.15;;;8.00;;
66179;SDS011;52986;44.028;20.466;2023-04-03T09:24:43;17.65;;;7.57;;
66179;SDS011;52986;44.028;20.466;2023-04-03T09:27:11;16.08;;;7.80;;
66179;SDS011;52986;44.028;20.466;2023-04-03T09:29:39;16.55;;;7.47;;
66179;SDS011;52986;44.028;20.466;2023-04-03T09:32:30;19.05;;;7.75;;
66179;SDS011;52986;44.028;20.466;2023-04-03T09:35:02;14.70;;;6.53;;
66179;SDS011;52986;44.028;20.466;2023-04-03T09:37:46;12.32;;;5.85;;
66179;SDS011;52986;44.028;20.466;2023-04-03T09:42:52;12.57;;;5.10;;
66179;SDS011;52986;44.028;20.466;2023-04-03T09:45:35;11.38;;;5.18;;
66179;SDS011;52986;44.028;20.466;2023-04-03T09:51:23;11.48;;;4.90;;
66179;SDS011;52986;44.028;20.466;2023-04-03T09:59:06;12.65;;;5.80;;
66179;SDS011;52986;44.028;20.466;2023-04-03T10:01:35;14.77;;;6.38;;
66179;SDS011;52986;44.028;20.466;2023-04-03T10:09:49;12.40;;;5.40;;
66179;SDS011;52986;44.028;20.466;2023-04-03T10:12:20;15.20;;;5.80;;
66179;SDS011;52986;44.028;20.466;2023-04-03T10:20:00;12.85;;;5.75;;
66179;SDS011;52986;44.028;20.466;2023-04-03T10:28:05;14.00;;;6.18;;
66179;SDS011;52986;44.028;20.466;2023-04-03T10:31:12;14.43;;;6.55;;
66179;SDS011;52986;44.028;20.466;2023-04-03T10:39:15;13.25;;;5.90;;
66179;SDS011;52986;44.028;20.466;2023-04-03T10:47:19;16.02;;;6.90;;
66179;SDS011;52986;44.028;20.466;2023-04-03T10:52:40;13.52;;;6.35;;
66179;SDS011;52986;44.028;20.466;2023-04-03T10:57:38;14.95;;;7.22;;
66179;SDS011;52986;44.028;20.466;2023-04-03T11:00:16;17.45;;;8.43;;
66179;SDS011;52986;44.028;20.466;2023-04-03T11:02:58;15.98;;;7.80;;
66179;SDS011;52986;44.028;20.466;2023-04-03T11:05:36;16.75;;;8.27;;
66179;SDS011;52986;44.028;20.466;2023-04-03T11:11:00;15.90;;;7.45;;
66179;SDS011;52986;44.028;20.466;2023-04-03T11:13:40;18.42;;;8.80;;
66179;SDS011;52986;44.028;20.466;2023-04-03T11:16:27;18.60;;;8.88;;
66179;SDS011;52986;44.028;20.466;2023-04-03T11:18:59;18.85;;;8.80;;
66179;SDS011;52986;44.028;20.466;2023-04-03T11:21:34;17.63;;;8.18;;
66179;SDS011;52986;44.028;20.466;2023-04-03T11:24:16;22.33;;;10.77;;
66179;SDS011;52986;44.028;20.466;2023-04-03T11:26:46;22.00;;;10.95;;
66179;SDS011;52986;44.028;20.466;2023-04-03T11:29:17;19.25;;;9.02;;
66179;SDS011;52986;44.028;20.466;2023-04-03T11:34:51;20.58;;;9.98;;
66179;SDS011;52986;44.028;20.466;2023-04-03T11:37:36;19.95;;;9.65;;
66179;SDS011;52986;44.028;20.466;2023-04-03T11:42:48;19.88;;;9.73;;
66179;SDS011;52986;44.028;20.466;2023-04-03T11:45:22;22.33;;;10.93;;
66179;SDS011;52986;44.028;20.466;2023-04-03T11:58:15;22.85;;;11.75;;
66179;SDS011;52986;44.028;20.466;2023-04-03T12:00:53;23.67;;;10.43;;
66179;SDS011;52986;44.028;20.466;2023-04-03T12:05:56;23.27;;;11.30;;
66179;SDS011;52986;44.028;20.466;2023-04-03T12:11:15;29.25;;;13.35;;
66179;SDS011;52986;44.028;20.466;2023-04-03T12:37:54;28.90;;;13.27;;
66179;SDS011;52986;44.028;20.466;2023-04-03T12:45:56;25.65;;;11.75;;
66179;SDS011;52986;44.028;20.466;2023-04-03T12:48:34;27.60;;;13.65;;
66179;SDS011;52986;44.028;20.466;2023-04-03T12:51:44;24.10;;;11.68;;
66179;SDS011;52986;44.028;20.466;2023-04-03T12:54:13;24.88;;;11.63;;
66179;SDS011;52986;44.028;20.466;2023-04-03T12:57:15;26.42;;;12.65;;
66179;SDS011;52986;44.028;20.466;2023-04-03T13:00:00;26.55;;;12.63;;
66179;SDS011;52986;44.028;20.466;2023-04-03T13:02:43;25.02;;;12.73;;
66179;SDS011;52986;44.028;20.466;2023-04-03T13:05:14;27.45;;;13.77;;
66179;SDS011;52986;44.028;20.466;2023-04-03T13:07:43;26.15;;;12.98;;
66179;SDS011;52986;44.028;20.466;2023-04-03T13:10:16;28.13;;;13.68;;
66179;SDS011;52986;44.028;20.466;2023-04-03T13:13:15;24.42;;;11.95;;
66179;SDS011;52986;44.028;20.466;2023-04-03T13:15:42;25.20;;;12.02;;
66179;SDS011;52986;44.028;20.466;2023-04-03T13:18:27;29.23;;;13.02;;
66179;SDS011;52986;44.028;20.466;2023-04-03T13:21:13;34.42;;;13.85;;
66179;SDS011;52986;44.028;20.466;2023-04-03T13:23:42;28.08;;;12.70;;
66179;SDS011;52986;44.028;20.466;2023-04-03T13:26:11;29.05;;;13.88;;
66179;SDS011;52986;44.028;20.466;2023-04-03T13:28:38;29.92;;;13.70;;
66179;SDS011;52986;44.028;20.466;2023-04-03T13:33:43;26.52;;;12.93;;
66179;SDS011;52986;44.028;20.466;2023-04-03T13:36:19;25.48;;;12.50;;
66179;SDS011;52986;44.028;20.466;2023-04-03T13:38:57;25.90;;;12.77;;
66179;SDS011;52986;44.028;20.466;2023-04-03T13:41:35;27.00;;;12.48;;
66179;SDS011;52986;44.028;20.466;2023-04-03T13:47:14;26.98;;;12.63;;
66179;SDS011;52986;44.028;20.466;2023-04-03T13:49:43;25.02;;;11.88;;
66179;SDS011;52986;44.028;20.466;2023-04-03T13:52:26;28.60;;;12.80;;
66179;SDS011;52986;44.028;20.466;2023-04-03T13:55:23;24.42;;;11.68;;
66179;SDS011;52986;44.028;20.466;2023-04-03T14:00:51;28.25;;;12.45;;
66179;SDS011;52986;44.028;20.466;2023-04-03T14:03:20;28.67;;;12.90;;
66179;SDS011;52986;44.028;20.466;2023-04-03T14:05:50;34.35;;;14.00;;
66179;SDS011;52986;44.028;20.466;2023-04-03T14:08:16;32.50;;;13.85;;
66179;SDS011;52986;44.028;20.466;2023-04-03T14:10:46;33.50;;;14.75;;
66179;SDS011;52986;44.028;20.466;2023-04-03T14:13:15;30.15;;;13.48;;
66179;SDS011;52986;44.028;20.466;2023-04-03T14:15:43;35.35;;;15.23;;
66179;SDS011;52986;44.028;20.466;2023-04-03T14:18:13;34.10;;;16.15;;
66179;SDS011;52986;44.028;20.466;2023-04-03T14:20:40;29.02;;;14.15;;
66179;SDS011;52986;44.028;20.466;2023-04-03T14:23:05;30.92;;;15.27;;
66179;SDS011;52986;44.028;20.466;2023-04-03T14:25:32;40.13;;;16.20;;
66179;SDS011;52986;44.028;20.466;2023-04-03T14:27:57;35.22;;;16.17;;
66179;SDS011;52986;44.028;20.466;2023-04-03T14:30:34;33.72;;;16.10;;
66179;SDS011;52986;44.028;20.466;2023-04-03T14:33:00;32.05;;;15.18;;
66179;SDS011;52986;44.028;20.466;2023-04-03T14:35:26;33.80;;;16.52;;
66179;SDS011;52986;44.028;20.466;2023-04-03T14:37:52;34.40;;;16.52;;
66179;SDS011;52986;44.028;20.466;2023-04-03T14:40:19;31.38;;;15.75;;
66179;SDS011;52986;44.028;20.466;2023-04-03T14:42:47;34.55;;;15.65;;
66179;SDS011;52986;44.028;20.466;2023-04-03T14:45:14;31.90;;;16.30;;
66179;SDS011;52986;44.028;20.466;2023-04-03T14:48:15;32.50;;;16.42;;
66179;SDS011;52986;44.028;20.466;2023-04-03T14:50:35;33.70;;;16.10;;
66179;SDS011;52986;44.028;20.466;2023-04-03T14:53:00;32.72;;;15.98;;
66179;SDS011;52986;44.028;20.466;2023-04-03T14:55:26;31.13;;;15.00;;
66179;SDS011;52986;44.028;20.466;2023-04-03T14:57:52;35.45;;;16.17;;
66179;SDS011;52986;44.028;20.466;2023-04-03T15:00:19;29.55;;;15.00;;
66179;SDS011;52986;44.028;20.466;2023-04-03T15:02:45;35.53;;;17.42;;
66179;SDS011;52986;44.028;20.466;2023-04-03T15:05:12;33.17;;;15.50;;
66179;SDS011;52986;44.028;20.466;2023-04-03T15:07:49;29.58;;;14.75;;
66179;SDS011;52986;44.028;20.466;2023-04-03T15:10:19;31.05;;;15.13;;
66179;SDS011;52986;44.028;20.466;2023-04-03T15:12:52;31.55;;;15.65;;
66179;SDS011;52986;44.028;20.466;2023-04-03T15:15:18;31.48;;;15.38;;
66179;SDS011;52986;44.028;20.466;2023-04-03T15:17:45;37.10;;;16.83;;
66179;SDS011;52986;44.028;20.466;2023-04-03T15:20:14;37.05;;;16.10;;
66179;SDS011;52986;44.028;20.466;2023-04-03T15:22:41;32.53;;;16.00;;
66179;SDS011;52986;44.028;20.466;2023-04-03T15:25:07;37.90;;;16.83;;
66179;SDS011;52986;44.028;20.466;2023-04-03T15:27:33;37.28;;;16.45;;
66179;SDS011;52986;44.028;20.466;2023-04-03T15:29:59;38.72;;;17.58;;
66179;SDS011;52986;44.028;20.466;2023-04-03T15:32:24;36.03;;;17.02;;
66179;SDS011;52986;44.028;20.466;2023-04-03T15:34:50;33.42;;;15.65;;
66179;SDS011;52986;44.028;20.466;2023-04-03T15:37:15;36.72;;;17.00;;
66179;SDS011;52986;44.028;20.466;2023-04-03T15:39:41;37.33;;;17.50;;
66179;SDS011;52986;44.028;20.466;2023-04-03T15:42:06;36.50;;;17.08;;
66179;SDS011;52986;44.028;20.466;2023-04-03T15:44:34;31.27;;;15.10;;
66179;SDS011;52986;44.028;20.466;2023-04-03T15:47:00;37.53;;;16.92;;
66179;SDS011;52986;44.028;20.466;2023-04-03T15:49:27;32.33;;;16.10;;
66179;SDS011;52986;44.028;20.466;2023-04-03T15:51:52;32.58;;;15.25;;
66179;SDS011;52986;44.028;20.466;2023-04-03T15:54:18;35.60;;;16.90;;
66179;SDS011;52986;44.028;20.466;2023-04-03T15:56:43;35.65;;;15.85;;
66179;SDS011;52986;44.028;20.466;2023-04-03T15:59:09;39.05;;;17.80;;
66179;SDS011;52986;44.028;20.466;2023-04-03T16:01:34;33.85;;;16.38;;
66179;SDS011;52986;44.028;20.466;2023-04-03T16:04:00;30.15;;;15.25;;
66179;SDS011;52986;44.028;20.466;2023-04-03T16:06:26;32.60;;;15.30;;
66179;SDS011;52986;44.028;20.466;2023-04-03T16:08:54;33.13;;;16.40;;
66179;SDS011;52986;44.028;20.466;2023-04-03T16:11:23;38.75;;;15.85;;
66179;SDS011;52986;44.028;20.466;2023-04-03T16:13:52;36.13;;;16.95;;
66179;SDS011;52986;44.028;20.466;2023-04-03T16:16:18;33.92;;;15.77;;
66179;SDS011;52986;44.028;20.466;2023-04-03T16:18:44;33.85;;;16.60;;
66179;SDS011;52986;44.028;20.466;2023-04-03T16:21:11;32.60;;;16.27;;
66179;SDS011;52986;44.028;20.466;2023-04-03T16:23:38;31.48;;;15.38;;
66179;SDS011;52986;44.028;20.466;2023-04-03T16:26:04;32.35;;;15.38;;
66179;SDS011;52986;44.028;20.466;2023-04-03T16:28:30;30.95;;;15.13;;